Alamota, Kansas
Current Conditions -  °F | °C
As of 11:54 PM on Wednesday 22 Oct 2014 (Local Time) from KGCK Reporting Station
Overcast Overcast  
Wind Chill: 61°   Ceiling: 1000
Heat Index: 61°   Visibility: 7mi
Dew Point: 58°   Wind: 14mph
Humidity: 90%   Direction: 190°S
Pressure: 30.07"   Gusts: NA
Location:  38.4812°N, 100.393°W
Report Text: KGCK 230454Z AUTO 19012KT 7SM OVC010 16/14 A3007 RMK AO2 SLP160 T01610144
Loading
Personal Weather Stations






























Interactive Weather Map
Tropical Storm Tracking
New forecast layout! Learn more

10-Day Weather Forecast

Advertisements
Track Severe Weather on mobile